Time;durP1;ratioP1;P1;durP2;ratioP2;P2;SDS_P1;SDS_P2;PMS_P1;PMS_P2;Temp;Humidity;BMP_temperature;BMP_pressure;BME280_temperature;BME280_humidity;BME280_pressure;Samples;Min_cycle;Max_cycle;Signal;HPM_P1;HPM_P2
2022/08/05 04:08:06;;;;;;;2.97;2.77;;;23.10;97.50;;;;;;4956776;29;20490;-73
2022/08/05 04:10:33;;;;;;;10.10;3.50;;;23.10;97.90;;;;;;4958466;28;20406;-75
2022/08/05 04:12:59;;;;;;;7.70;3.80;;;23.00;97.90;;;;;;4957761;28;20404;-72
2022/08/05 04:15:28;;;;;;;4.90;3.77;;;23.00;97.90;;;;;;4957220;28;20416;-72
2022/08/05 04:17:55;;;;;;;3.93;3.63;;;23.00;98.00;;;;;;4957631;28;20548;-74
2022/08/05 04:20:22;;;;;;;5.63;3.43;;;23.00;98.00;;;;;;4957812;28;20493;-74
2022/08/05 04:22:48;;;;;;;2.97;2.77;;;22.90;98.40;;;;;;4957883;28;20400;-74
2022/08/05 04:25:15;;;;;;;6.83;3.10;;;22.90;98.20;;;;;;4957485;28;20964;-74
2022/08/05 04:27:40;;;;;;;3.50;3.20;;;22.90;98.20;;;;;;4957818;28;20415;-74
2022/08/05 04:30:07;;;;;;;4.17;3.80;;;22.80;98.00;;;;;;4956525;28;20394;-73
2022/08/05 04:32:33;;;;;;;3.47;3.13;;;22.80;98.30;;;;;;4957149;29;20182;-74
2022/08/05 04:34:59;;;;;;;3.43;3.13;;;22.90;98.30;;;;;;4955265;28;20470;-73
2022/08/05 04:37:24;;;;;;;3.30;3.10;;;22.80;98.40;;;;;;4956447;29;20276;-73
2022/08/05 04:39:50;;;;;;;3.70;3.40;;;22.80;99.10;;;;;;4957946;29;20210;-73
2022/08/05 04:42:15;;;;;;;4.03;3.73;;;22.90;99.10;;;;;;4957441;28;20178;-73
2022/08/05 04:44:41;;;;;;;3.87;3.57;;;22.90;99.10;;;;;;4957131;28;20210;-74
2022/08/05 04:47:07;;;;;;;3.33;3.10;;;23.00;99.20;;;;;;4957468;28;20226;-74
2022/08/05 04:49:32;;;;;;;3.60;3.40;;;23.00;99.10;;;;;;4957880;28;20168;-73
2022/08/05 04:51:58;;;;;;;4.00;3.60;;;23.10;99.00;;;;;;4958001;28;20690;-73
2022/08/05 04:54:25;;;;;;;3.90;3.60;;;23.10;99.10;;;;;;4955846;28;20302;-74
2022/08/05 04:56:52;;;;;;;3.93;3.47;;;23.10;99.30;;;;;;4956263;28;20710;-72
2022/08/05 04:59:19;;;;;;;3.53;3.33;;;23.20;99.20;;;;;;4955689;28;20415;-72
2022/08/05 05:01:45;;;;;;;3.80;3.50;;;23.20;99.10;;;;;;4957440;28;20387;-73
2022/08/05 05:04:10;;;;;;;3.60;3.30;;;23.20;99.20;;;;;;4956763;28;20454;-73
2022/08/05 05:06:37;;;;;;;3.90;3.60;;;23.20;99.40;;;;;;4957050;28;20211;-73
2022/08/05 05:09:03;;;;;;;4.57;4.17;;;23.10;99.70;;;;;;4956992;28;20179;-73
2022/08/05 05:11:28;;;;;;;3.97;3.57;;;23.10;99.70;;;;;;4956433;28;20932;-73
2022/08/05 05:13:54;;;;;;;3.77;3.47;;;23.20;99.80;;;;;;4956248;29;20430;-73
2022/08/05 05:16:20;;;;;;;4.13;3.73;;;23.20;99.90;;;;;;4956399;28;20610;-73
2022/08/05 05:18:45;;;;;;;4.20;3.90;;;23.20;99.90;;;;;;4955848;28;20206;-73
2022/08/05 05:21:11;;;;;;;6.67;3.80;;;23.30;99.90;;;;;;4956232;28;20539;-74
2022/08/05 05:23:36;;;;;;;7.63;4.10;;;23.30;99.90;;;;;;4955878;29;20238;-71
2022/08/05 05:26:03;;;;;;;4.20;3.80;;;23.30;99.90;;;;;;4956373;28;20173;-73
2022/08/05 05:28:28;;;;;;;5.00;3.90;;;23.50;99.90;;;;;;4955518;28;20538;-72
2022/08/05 05:30:54;;;;;;;5.10;4.60;;;23.80;99.90;;;;;;4956553;28;20411;-73
2022/08/05 05:33:20;;;;;;;5.57;4.67;;;24.00;99.90;;;;;;4955735;28;20199;-75
2022/08/05 05:35:46;;;;;;;5.00;4.40;;;24.20;99.50;;;;;;4955249;28;20661;-73
2022/08/05 05:38:12;;;;;;;4.50;4.20;;;24.40;99.20;;;;;;4956216;28;20186;-73
2022/08/05 05:40:38;;;;;;;5.90;4.27;;;24.50;98.80;;;;;;4955711;28;20434;-73
2022/08/05 05:43:03;;;;;;;4.83;4.43;;;24.70;98.90;;;;;;4955778;29;20506;-75
2022/08/05 05:45:30;;;;;;;6.13;4.73;;;24.80;98.40;;;;;;4956284;28;20207;-74
2022/08/05 05:48:05;;;;;;;5.60;4.30;;;24.90;98.10;;;;;;4956226;28;20389;-75
2022/08/05 05:50:32;;;;;;;5.77;4.70;;;25.00;98.10;;;;;;4955020;28;20531;-77
2022/08/05 05:52:57;;;;;;;4.90;4.50;;;25.10;97.80;;;;;;4955567;29;20386;-75
2022/08/05 05:55:23;;;;;;;5.47;5.07;;;25.20;97.20;;;;;;4956063;28;20913;-73
2022/08/05 05:57:49;;;;;;;4.97;4.57;;;25.30;97.30;;;;;;4956210;29;20255;-72
2022/08/05 06:00:17;;;;;;;5.10;4.60;;;25.40;97.10;;;;;;4955766;28;20191;-74
2022/08/05 06:02:44;;;;;;;5.10;4.70;;;25.50;96.80;;;;;;4955839;29;20177;-73
2022/08/05 06:05:12;;;;;;;5.30;4.50;;;25.60;96.60;;;;;;4955820;28;20460;-73
2022/08/05 06:07:38;;;;;;;4.20;3.73;;;25.70;95.90;;;;;;4955828;28;20399;-73
2022/08/05 06:10:05;;;;;;;5.03;4.30;;;25.80;95.90;;;;;;4955602;28;20431;-72
2022/08/05 06:12:31;;;;;;;6.53;3.90;;;25.90;95.70;;;;;;4955527;28;20423;-74
2022/08/05 06:14:56;;;;;;;4.47;4.07;;;26.00;95.60;;;;;;4955827;28;20936;-73
2022/08/05 06:17:22;;;;;;;4.03;3.37;;;26.10;95.10;;;;;;4956120;28;20251;-74
2022/08/05 06:19:48;;;;;;;3.20;3.00;;;26.30;94.20;;;;;;4955468;28;20665;-71
2022/08/05 06:22:25;;;;;;;4.97;3.20;;;26.50;93.70;;;;;;4955478;28;20177;-72
2022/08/05 06:24:51;;;;;;;4.20;2.90;;;26.80;93.10;;;;;;4955591;28;20467;-71
2022/08/05 06:27:17;;;;;;;3.90;3.60;;;26.90;93.00;;;;;;4955560;28;20466;-69
2022/08/05 06:29:42;;;;;;;3.70;3.40;;;26.90;92.10;;;;;;4955695;29;20626;-74
2022/08/05 06:32:09;;;;;;;3.27;3.07;;;27.00;91.80;;;;;;4954280;29;20169;-71
2022/08/05 06:34:34;;;;;;;3.27;3.00;;;26.90;92.00;;;;;;4955417;28;20204;-71
2022/08/05 06:37:00;;;;;;;3.70;2.40;;;26.90;91.40;;;;;;4955514;28;20931;-71
2022/08/05 06:39:26;;;;;;;4.00;3.70;;;26.90;91.50;;;;;;4955306;29;20236;-70
2022/08/05 06:41:51;;;;;;;3.00;2.80;;;26.90;91.60;;;;;;4955042;28;20206;-72
2022/08/05 06:44:17;;;;;;;3.30;3.03;;;26.90;91.70;;;;;;4954806;28;20248;-70
2022/08/05 06:46:43;;;;;;;3.70;3.07;;;27.00;91.60;;;;;;4955584;28;20185;-69
2022/08/05 06:49:08;;;;;;;3.80;3.50;;;27.20;91.70;;;;;;4955470;28;20180;-70
2022/08/05 06:51:34;;;;;;;3.87;3.20;;;27.30;90.90;;;;;;4955305;28;20265;-70
2022/08/05 06:54:02;;;;;;;3.20;2.90;;;27.30;90.90;;;;;;4954079;28;20200;-71
2022/08/05 06:56:28;;;;;;;2.97;2.77;;;27.40;90.60;;;;;;4955401;28;20310;-67
2022/08/05 06:58:54;;;;;;;2.73;2.57;;;27.40;90.40;;;;;;4955290;28;20759;-69
2022/08/05 07:01:20;;;;;;;6.37;3.30;;;27.40;90.40;;;;;;4955289;28;20399;-68
2022/08/05 07:03:45;;;;;;;3.17;2.90;;;27.50;90.00;;;;;;4954635;28;20570;-68
2022/08/05 07:06:11;;;;;;;4.10;3.70;;;27.50;90.20;;;;;;4955125;28;20260;-69
2022/08/05 07:08:37;;;;;;;3.03;2.83;;;27.70;90.50;;;;;;4955359;29;20169;-69
2022/08/05 07:11:04;;;;;;;4.67;4.00;;;27.90;90.60;;;;;;4953922;29;20397;-68
2022/08/05 07:19:00;;;;;;;2.87;2.67;;;28.70;87.30;;;;;;4954998;28;20374;-69
2022/08/05 07:21:26;;;;;;;3.60;3.30;;;29.00;86.70;;;;;;4955147;28;20387;-70
2022/08/05 07:23:51;;;;;;;3.00;2.80;;;29.00;85.70;;;;;;4954560;29;20210;-72
2022/08/05 07:26:17;;;;;;;3.33;3.03;;;29.00;85.00;;;;;;4955238;29;20531;-70
2022/08/05 07:28:43;;;;;;;5.20;3.13;;;29.10;85.20;;;;;;4955262;28;20176;-70
2022/08/05 07:31:08;;;;;;;4.07;3.77;;;29.10;85.80;;;;;;4954699;29;20177;-71
2022/08/05 07:33:34;;;;;;;3.40;3.10;;;29.20;84.90;;;;;;4954079;28;20563;-69
2022/08/05 07:36:00;;;;;;;3.50;3.30;;;29.00;84.20;;;;;;4955113;28;20183;-70
2022/08/05 07:38:26;;;;;;;3.57;3.33;;;28.80;84.50;;;;;;4954566;28;20196;-70
2022/08/05 07:40:52;;;;;;;3.17;2.90;;;28.80;84.30;;;;;;4954562;28;20195;-70
2022/08/05 07:43:18;;;;;;;5.60;2.83;;;29.00;84.80;;;;;;4954471;28;20905;-69
2022/08/05 07:45:43;;;;;;;3.90;3.10;;;29.20;84.40;;;;;;4954705;28;20209;-70
2022/08/05 07:48:10;;;;;;;3.10;2.90;;;29.40;83.20;;;;;;4955019;29;20176;-71
2022/08/05 07:50:36;;;;;;;4.03;3.73;;;29.70;82.20;;;;;;4953574;29;20627;-70
2022/08/05 07:53:01;;;;;;;5.00;3.83;;;30.20;80.80;;;;;;4952498;28;20410;-70
2022/08/05 07:55:27;;;;;;;2.60;2.50;;;31.10;79.00;;;;;;4952921;29;20543;-70
2022/08/05 07:57:53;;;;;;;2.60;2.50;;;32.30;75.30;;;;;;4951655;28;20177;-72
2022/08/05 08:00:18;;;;;;;3.30;3.10;;;33.50;71.20;;;;;;4952909;28;20181;-72
2022/08/05 08:02:44;;;;;;;3.07;2.87;;;34.60;66.90;;;;;;4952747;28;20174;-71
2022/08/05 08:05:10;;;;;;;3.40;2.77;;;35.60;62.60;;;;;;4955587;28;20548;-69
2022/08/05 08:07:35;;;;;;;3.00;2.80;;;36.50;59.60;;;;;;4958279;28;20551;-71
2022/08/05 08:10:02;;;;;;;3.30;3.10;;;37.00;57.50;;;;;;4958159;28;20181;-70
2022/08/05 08:12:27;;;;;;;3.23;3.03;;;37.30;56.30;;;;;;4957733;28;20173;-71
2022/08/05 08:14:53;;;;;;;3.00;2.70;;;37.60;55.70;;;;;;4957802;28;20436;-70
2022/08/05 08:17:18;;;;;;;2.70;2.60;;;38.10;56.50;;;;;;4957393;29;20264;-70
2022/08/05 08:19:44;;;;;;;2.60;2.40;;;38.80;54.90;;;;;;4958166;28;20173;-71
2022/08/05 08:22:11;;;;;;;3.27;3.07;;;38.80;52.10;;;;;;4957749;28;20229;-68
2022/08/05 08:24:37;;;;;;;2.30;2.20;;;38.90;51.90;;;;;;4957731;28;20519;-67
2022/08/05 08:27:04;;;;;;;2.40;2.30;;;39.30;52.40;;;;;;4956655;28;20974;-67
2022/08/05 08:29:30;;;;;;;2.93;2.73;;;39.30;50.40;;;;;;4957695;28;20480;-68
2022/08/05 08:31:56;;;;;;;2.90;2.70;;;39.30;50.90;;;;;;4957863;28;20405;-68
2022/08/05 08:34:24;;;;;;;2.20;2.10;;;39.30;50.20;;;;;;4957217;28;20200;-68
2022/08/05 08:36:50;;;;;;;2.27;2.17;;;39.40;50.80;;;;;;4957659;28;20456;-68
2022/08/05 08:39:18;;;;;;;2.20;2.10;;;39.60;49.40;;;;;;4957417;29;20517;-75
2022/08/05 08:41:47;;;;;;;2.13;2.03;;;40.00;48.10;;;;;;4957589;28;20426;-73
2022/08/05 08:44:18;;;;;;;2.30;2.20;;;40.20;47.80;;;;;;4957044;28;20460;-72
2022/08/05 08:46:45;;;;;;;2.30;2.20;;;40.20;47.50;;;;;;4957532;28;20415;-73
2022/08/05 08:49:17;;;;;;;3.40;2.53;;;40.60;47.30;;;;;;4957671;28;20405;-73
2022/08/05 08:51:47;;;;;;;2.50;2.40;;;41.10;46.20;;;;;;4957479;28;20468;-74
2022/08/05 08:54:13;;;;;;;2.00;1.90;;;41.10;45.50;;;;;;4956522;28;20491;-74
2022/08/05 08:56:39;;;;;;;2.37;2.17;;;41.30;45.20;;;;;;4956935;28;20425;-76
2022/08/05 08:59:05;;;;;;;2.20;2.10;;;41.10;44.90;;;;;;4937127;29;20830;-73
2022/08/05 09:01:32;;;;;;;3.53;3.33;;;40.80;45.30;;;;;;4938141;29;20441;-74
2022/08/05 09:03:59;;;;;;;2.30;2.20;;;41.00;45.60;;;;;;4937785;29;20710;-73
2022/08/05 09:06:29;;;;;;;2.53;2.43;;;41.30;45.60;;;;;;4937801;29;20488;-75
2022/08/05 09:08:56;;;;;;;2.20;2.10;;;41.50;44.90;;;;;;4957176;28;20429;-74
2022/08/05 09:11:22;;;;;;;2.77;2.60;;;41.50;44.70;;;;;;4957126;28;20503;-75
2022/08/05 09:13:48;;;;;;;2.57;2.47;;;41.80;44.70;;;;;;4956397;28;20595;-74
2022/08/05 09:16:14;;;;;;;2.67;2.57;;;42.00;43.80;;;;;;4956583;28;20264;-77
2022/08/05 09:18:40;;;;;;;2.67;2.57;;;42.30;43.40;;;;;;4956666;29;20562;-74
2022/08/05 09:21:06;;;;;;;2.73;2.53;;;42.10;43.10;;;;;;4957029;28;20180;-75
2022/08/05 09:23:31;;;;;;;2.90;2.70;;;42.00;43.20;;;;;;4956429;28;20276;-75
2022/08/05 09:26:18;;;;;;;2.43;2.33;;;41.80;43.60;;;;;;4955439;28;20772;-75
2022/08/05 09:28:46;;;;;;;2.43;2.33;;;41.60;43.70;;;;;;4956915;28;20255;-75
2022/08/05 09:31:14;;;;;;;3.53;2.70;;;42.00;43.90;;;;;;4956407;28;20432;-75
2022/08/05 09:33:55;;;;;;;2.87;2.63;;;42.30;43.40;;;;;;4955958;28;20482;-75
2022/08/05 09:36:21;;;;;;;2.90;2.70;;;42.50;42.30;;;;;;4956691;28;20973;-77
2022/08/05 09:39:02;;;;;;;2.60;2.50;;;42.80;42.30;;;;;;4956401;28;20555;-74
2022/08/05 09:41:27;;;;;;;3.03;2.93;;;43.00;41.70;;;;;;4956529;28;20600;-77
2022/08/05 09:43:53;;;;;;;3.03;2.83;;;43.10;41.60;;;;;;4954641;28;20522;-74
2022/08/05 09:46:29;;;;;;;3.03;2.90;;;43.30;41.20;;;;;;4955678;28;20180;-76
2022/08/05 09:48:56;;;;;;;3.00;2.90;;;43.00;41.20;;;;;;4955866;28;20191;-74
2022/08/05 09:51:36;;;;;;;3.13;3.03;;;43.10;41.90;;;;;;4955102;28;20511;-76
2022/08/05 09:54:07;;;;;;;2.93;2.83;;;43.40;40.60;;;;;;4955837;28;20464;-74
2022/08/05 09:56:34;;;;;;;2.83;2.63;;;42.90;41.20;;;;;;4956278;28;20918;-78
2022/08/05 09:58:59;;;;;;;2.73;2.50;;;42.20;41.30;;;;;;4956241;28;20409;-73
2022/08/05 10:01:26;;;;;;;2.20;2.10;;;41.70;42.10;;;;;;4955857;28;20930;-75
2022/08/05 10:04:03;;;;;;;2.50;2.40;;;41.80;42.00;;;;;;4955642;28;20196;-73
2022/08/05 10:06:29;;;;;;;2.60;2.50;;;42.30;42.50;;;;;;4955955;28;20793;-75
2022/08/05 10:09:08;;;;;;;2.70;2.60;;;42.90;41.30;;;;;;4956016;28;20407;-74
2022/08/05 10:11:33;;;;;;;2.77;2.67;;;43.30;40.80;;;;;;4954951;29;20324;-74
2022/08/05 10:14:23;;;;;;;3.17;3.03;;;43.70;40.70;;;;;;4955469;28;20538;-77
2022/08/05 10:16:50;;;;;;;3.37;3.27;;;44.00;40.00;;;;;;4955481;28;20183;-74
2022/08/05 10:19:16;;;;;;;2.70;2.60;;;43.80;39.40;;;;;;4956065;28;20401;-77
2022/08/05 10:21:42;;;;;;;3.13;2.93;;;43.80;39.70;;;;;;4955878;28;20409;-78
2022/08/05 10:24:11;;;;;;;2.80;2.70;;;43.70;38.90;;;;;;4953967;29;20303;-79
2022/08/05 10:26:40;;;;;;;3.77;2.57;;;43.30;38.60;;;;;;4955891;28;20605;-75
2022/08/05 10:29:07;;;;;;;3.13;3.03;;;42.70;39.60;;;;;;4954832;28;20906;-76
2022/08/05 10:31:32;;;;;;;2.90;2.80;;;42.60;40.00;;;;;;4955814;29;20412;-75
2022/08/05 10:33:58;;;;;;;2.80;2.60;;;42.50;40.50;;;;;;4955191;29;20511;-74
2022/08/05 10:36:24;;;;;;;2.40;2.30;;;42.10;39.90;;;;;;4956646;28;20169;-76
2022/08/05 10:38:56;;;;;;;2.60;2.50;;;42.00;40.00;;;;;;4955398;29;20181;-74
2022/08/05 10:41:27;;;;;;;2.70;2.60;;;41.80;40.30;;;;;;4955687;28;20169;-80
2022/08/05 10:44:04;;;;;;;2.50;2.40;;;41.70;40.50;;;;;;4955189;28;20435;-75
2022/08/05 10:46:56;;;;;;;2.43;2.33;;;41.20;41.20;;;;;;4955143;28;20436;-78
2022/08/05 10:49:24;;;;;;;2.43;2.23;;;40.90;42.00;;;;;;4953162;29;20439;-71
2022/08/05 10:51:59;;;;;;;2.20;2.10;;;40.60;41.10;;;;;;4955230;28;20408;-68
2022/08/05 10:55:04;;;;;;;2.60;2.40;;;40.40;41.60;;;;;;4954909;28;20517;-68
2022/08/05 10:57:29;;;;;;;2.37;2.27;;;40.30;41.80;;;;;;4954757;29;20421;-67
2022/08/05 11:00:18;;;;;;;2.27;2.17;;;40.20;42.50;;;;;;4955123;28;20413;-69
2022/08/05 11:03:03;;;;;;;2.50;2.40;;;40.10;41.90;;;;;;4954735;28;20180;-69
2022/08/05 11:05:29;;;;;;;2.40;2.30;;;39.80;41.90;;;;;;4955316;28;20408;-69
2022/08/05 11:08:03;;;;;;;2.60;2.43;;;39.50;42.20;;;;;;4955085;28;20844;-69
2022/08/05 11:10:29;;;;;;;2.50;2.40;;;39.10;43.60;;;;;;4954891;28;20966;-70
2022/08/05 11:12:57;;;;;;;2.50;2.40;;;38.70;43.10;;;;;;4954931;28;20768;-69
2022/08/05 11:15:22;;;;;;;3.70;2.33;;;38.30;43.40;;;;;;4954636;28;20479;-70
2022/08/05 11:17:50;;;;;;;2.30;2.20;;;38.10;44.90;;;;;;4954749;28;20395;-70
2022/08/05 11:20:36;;;;;;;2.30;2.20;;;37.70;44.50;;;;;;4955011;28;20161;-69
2022/08/05 11:23:35;;;;;;;2.17;2.07;;;37.00;45.40;;;;;;4954621;28;20383;-69
2022/08/05 11:26:04;;;;;;;2.87;2.47;;;36.60;45.40;;;;;;4954992;28;20516;-68
2022/08/05 11:28:30;;;;;;;2.00;1.90;;;36.00;45.90;;;;;;4954813;28;20448;-68
2022/08/05 11:30:56;;;;;;;2.60;2.40;;;35.50;46.90;;;;;;4954783;28;20761;-67
2022/08/05 11:33:47;;;;;;;2.77;2.57;;;34.90;47.70;;;;;;4954424;28;20552;-68
2022/08/05 11:36:17;;;;;;;2.37;2.03;;;34.50;48.90;;;;;;4953033;29;20208;-68
2022/08/05 11:38:42;;;;;;;2.90;2.30;;;34.20;49.00;;;;;;4954911;28;20413;-67
2022/08/05 11:41:14;;;;;;;2.60;2.40;;;34.10;49.50;;;;;;4958446;28;20442;-68
2022/08/05 11:43:56;;;;;;;2.03;1.93;;;34.00;49.80;;;;;;4958102;28;20655;-68
2022/08/05 11:46:30;;;;;;;2.20;2.10;;;33.90;49.70;;;;;;4958188;28;20415;-69
2022/08/05 11:48:57;;;;;;;2.20;2.10;;;33.90;50.80;;;;;;4959126;28;20379;-67
2022/08/05 11:51:24;;;;;;;2.17;2.07;;;33.90;50.10;;;;;;4958492;28;20391;-68
2022/08/05 11:53:50;;;;;;;1.93;1.83;;;34.00;50.40;;;;;;4957906;28;20484;-68
2022/08/05 11:56:16;;;;;;;2.27;2.10;;;34.00;49.70;;;;;;4958540;28;20379;-67
2022/08/05 11:58:44;;;;;;;2.40;2.20;;;33.90;49.90;;;;;;4958569;28;20579;-68
2022/08/05 12:01:11;;;;;;;2.03;1.83;;;33.80;49.00;;;;;;4958110;28;20942;-68
2022/08/05 12:03:51;;;;;;;2.20;2.00;;;33.60;50.00;;;;;;4957632;29;20523;-67
2022/08/05 12:06:19;;;;;;;2.47;2.37;;;33.60;50.00;;;;;;4958271;28;20422;-67
2022/08/05 12:08:47;;;;;;;2.53;2.33;;;33.40;50.70;;;;;;4958069;29;20490;-67
2022/08/05 12:11:28;;;;;;;2.03;1.93;;;33.20;50.70;;;;;;4958253;29;20394;-67
2022/08/05 12:14:02;;;;;;;2.97;2.30;;;33.10;50.20;;;;;;4956894;28;20494;-68
2022/08/05 12:16:31;;;;;;;2.73;2.50;;;33.20;50.40;;;;;;4958055;28;20417;-67
2022/08/05 12:18:57;;;;;;;2.30;2.20;;;33.20;50.50;;;;;;4957199;29;20403;-67
2022/08/05 12:21:32;;;;;;;2.67;2.47;;;33.30;50.70;;;;;;4957218;29;20416;-67
2022/08/05 12:24:19;;;;;;;2.27;2.10;;;33.40;50.60;;;;;;4957372;28;20802;-67
2022/08/05 12:26:52;;;;;;;2.50;2.30;;;33.40;51.00;;;;;;4958153;29;20420;-67
2022/08/05 12:29:20;;;;;;;2.20;2.03;;;33.40;51.60;;;;;;4958153;28;20379;-66
2022/08/05 12:31:56;;;;;;;2.43;2.23;;;33.60;51.50;;;;;;4956645;29;20420;-66
2022/08/05 12:34:27;;;;;;;2.70;2.10;;;33.80;50.60;;;;;;4957169;28;20434;-67
2022/08/05 12:36:55;;;;;;;2.27;2.07;;;33.90;50.80;;;;;;4956808;29;20409;-67
2022/08/05 12:39:25;;;;;;;2.20;2.10;;;34.00;50.20;;;;;;4957472;28;20401;-67
2022/08/05 12:41:55;;;;;;;3.43;2.30;;;34.10;49.90;;;;;;4957540;28;20395;-67
2022/08/05 12:44:21;;;;;;;3.10;2.27;;;34.10;49.90;;;;;;4954763;28;20436;-67
2022/08/05 12:46:53;;;;;;;2.73;2.53;;;34.10;50.20;;;;;;4957912;28;20379;-69
2022/08/05 12:49:19;;;;;;;2.27;2.17;;;34.20;49.30;;;;;;4955974;28;20635;-68
2022/08/05 12:51:55;;;;;;;2.17;2.07;;;34.00;49.60;;;;;;4956323;28;20869;-67
2022/08/05 12:54:30;;;;;;;2.07;1.97;;;33.80;50.00;;;;;;4955252;28;20460;-67
2022/08/05 12:57:01;;;;;;;2.77;2.57;;;33.80;50.40;;;;;;4955272;28;20455;-68
2022/08/05 12:59:30;;;;;;;4.50;2.00;;;33.80;50.20;;;;;;4955267;29;20392;-68
2022/08/05 13:01:58;;;;;;;2.47;2.27;;;33.70;50.10;;;;;;4953904;28;20755;-67
2022/08/05 13:04:37;;;;;;;2.93;2.73;;;33.60;50.30;;;;;;4954464;28;20418;-68
2022/08/05 13:07:11;;;;;;;2.13;1.93;;;33.60;49.90;;;;;;4955009;28;20419;-68
2022/08/05 13:09:41;;;;;;;2.50;2.30;;;33.60;50.00;;;;;;4956245;28;20499;-68
2022/08/05 13:12:10;;;;;;;2.23;2.10;;;33.50;50.20;;;;;;4957245;28;20398;-67
2022/08/05 13:14:39;;;;;;;2.90;2.20;;;33.40;50.60;;;;;;4956956;28;20563;-67
2022/08/05 13:17:27;;;;;;;2.53;2.33;;;33.40;50.20;;;;;;4957074;28;20383;-67
2022/08/05 13:20:13;;;;;;;2.30;2.20;;;33.30;50.20;;;;;;4956408;28;20383;-68
2022/08/05 13:22:46;;;;;;;2.53;2.33;;;33.30;50.60;;;;;;4956699;28;20478;-68
2022/08/05 13:25:14;;;;;;;2.37;2.27;;;33.20;50.60;;;;;;4956627;29;20444;-68
2022/08/05 13:27:42;;;;;;;2.47;2.37;;;33.10;51.00;;;;;;4956863;28;20389;-67
2022/08/05 13:30:10;;;;;;;2.23;2.13;;;32.90;51.10;;;;;;4956755;28;20411;-66
2022/08/05 13:32:36;;;;;;;2.63;2.53;;;33.00;51.10;;;;;;4956375;29;20413;-67
2022/08/05 13:35:02;;;;;;;3.43;3.07;;;33.10;51.20;;;;;;4955975;29;20612;-67
2022/08/05 13:37:28;;;;;;;7.00;3.53;;;33.20;51.90;;;;;;4956664;28;20401;-69
2022/08/05 13:39:54;;;;;;;2.47;2.37;;;33.30;52.20;;;;;;4956377;28;20382;-67
2022/08/05 13:42:21;;;;;;;3.73;2.60;;;33.30;51.10;;;;;;4956164;28;20173;-70
2022/08/05 13:44:50;;;;;;;2.57;2.40;;;33.20;51.50;;;;;;4956327;28;20256;-68
2022/08/05 13:47:15;;;;;;;5.33;2.67;;;33.20;51.20;;;;;;4956362;28;20420;-68
2022/08/05 13:49:41;;;;;;;3.30;3.00;;;33.20;51.20;;;;;;4956348;28;20930;-67
2022/08/05 13:52:28;;;;;;;3.37;2.40;;;33.20;51.60;;;;;;4956476;29;20172;-68
2022/08/05 13:54:54;;;;;;;2.57;2.37;;;33.30;52.10;;;;;;4955501;29;20252;-67
2022/08/05 13:57:20;;;;;;;2.20;2.10;;;33.40;52.70;;;;;;4956157;28;20383;-65
2022/08/05 13:59:46;;;;;;;3.10;2.80;;;33.60;52.20;;;;;;4956446;28;20212;-67
2022/08/05 14:02:13;;;;;;;2.40;2.30;;;33.70;51.90;;;;;;4955609;28;20899;-72
2022/08/05 14:07:30;;;;;;;2.47;2.27;;;33.60;51.10;;;;;;4955713;29;20446;-69
2022/08/05 14:09:55;;;;;;;3.00;2.80;;;33.60;51.10;;;;;;4941683;29;20410;-68
2022/08/05 14:12:21;;;;;;;3.00;2.80;;;33.50;50.90;;;;;;4955061;28;20395;-70
2022/08/05 14:14:47;;;;;;;2.50;2.40;;;33.60;51.40;;;;;;4955845;28;20564;-68
2022/08/05 14:17:14;;;;;;;2.40;2.30;;;33.60;51.40;;;;;;4955502;28;20216;-68
2022/08/05 14:19:43;;;;;;;2.47;2.33;;;33.60;51.10;;;;;;4955345;28;20173;-69
2022/08/05 14:22:09;;;;;;;2.30;2.10;;;33.50;51.90;;;;;;4953215;28;20425;-70
2022/08/05 14:24:36;;;;;;;2.60;2.40;;;33.50;51.80;;;;;;4953020;29;20445;-71
2022/08/05 14:27:01;;;;;;;2.43;2.23;;;33.40;52.20;;;;;;4953303;28;20177;-70
2022/08/05 14:29:27;;;;;;;2.07;1.93;;;33.20;52.40;;;;;;4953578;28;20410;-67
2022/08/05 14:31:53;;;;;;;2.30;2.20;;;33.00;52.30;;;;;;4953704;28;20263;-69
2022/08/05 14:34:19;;;;;;;2.40;2.10;;;32.80;52.80;;;;;;4953731;28;20464;-68
2022/08/05 14:36:44;;;;;;;2.30;2.10;;;32.60;52.70;;;;;;4955125;29;20256;-72
2022/08/05 14:39:10;;;;;;;2.23;2.10;;;32.30;53.10;;;;;;4955999;28;20180;-71
2022/08/05 14:41:36;;;;;;;2.70;2.53;;;32.20;53.50;;;;;;4955206;29;20271;-71
2022/08/05 14:44:02;;;;;;;2.47;2.27;;;32.00;53.90;;;;;;4954944;28;20630;-70
2022/08/05 14:46:29;;;;;;;2.80;2.00;;;31.80;54.10;;;;;;4955098;28;20479;-69
2022/08/05 14:48:55;;;;;;;2.70;2.43;;;31.60;54.30;;;;;;4955211;28;20535;-68
2022/08/05 14:51:21;;;;;;;2.20;2.10;;;31.40;54.80;;;;;;4955419;28;20416;-66
2022/08/05 14:53:48;;;;;;;2.13;2.00;;;31.30;55.20;;;;;;4954365;29;20462;-71
2022/08/05 14:56:14;;;;;;;2.73;2.53;;;31.10;55.50;;;;;;4955357;28;20679;-68
2022/08/05 14:58:40;;;;;;;3.13;2.90;;;31.00;56.80;;;;;;4953226;29;20798;-68
2022/08/05 15:01:06;;;;;;;3.00;2.80;;;30.80;57.80;;;;;;4953950;28;20420;-66
2022/08/05 15:03:32;;;;;;;2.23;2.13;;;30.60;58.40;;;;;;4953202;28;20204;-70
2022/08/05 15:05:57;;;;;;;2.60;2.00;;;30.40;58.90;;;;;;4954816;28;20195;-68
2022/08/05 15:08:24;;;;;;;2.20;2.00;;;30.20;59.30;;;;;;4955316;29;20520;-71
2022/08/05 15:10:50;;;;;;;2.60;2.40;;;30.00;60.00;;;;;;4954816;28;20195;-70
2022/08/05 15:13:15;;;;;;;3.07;2.53;;;29.80;61.40;;;;;;4954890;28;20492;-70
2022/08/05 15:15:41;;;;;;;3.03;2.70;;;29.70;62.70;;;;;;4958261;29;20474;-70
2022/08/05 15:18:07;;;;;;;2.63;2.50;;;29.50;63.80;;;;;;4958631;28;20178;-68
2022/08/05 15:20:33;;;;;;;3.30;3.10;;;29.30;64.60;;;;;;4958619;28;20183;-69
2022/08/05 15:23:07;;;;;;;2.60;2.50;;;29.20;65.40;;;;;;4958273;28;20203;-70
2022/08/05 15:25:33;;;;;;;2.83;2.63;;;29.10;66.00;;;;;;4958649;28;20185;-69
2022/08/05 15:27:59;;;;;;;7.57;5.67;;;29.10;66.60;;;;;;4958877;28;20436;-68
2022/08/05 15:30:25;;;;;;;4.47;4.10;;;29.10;67.90;;;;;;4959245;29;20206;-70
2022/08/05 15:32:51;;;;;;;7.27;3.73;;;29.10;73.80;;;;;;4958252;28;20410;-67
2022/08/05 15:35:17;;;;;;;3.30;2.97;;;28.80;82.60;;;;;;4957170;29;20438;-70
2022/08/05 15:37:42;;;;;;;6.20;3.50;;;27.90;86.00;;;;;;4958279;29;20726;-67
2022/08/05 15:40:08;;;;;;;4.73;3.50;;;27.10;92.40;;;;;;4958498;29;20212;-72
2022/08/05 15:42:34;;;;;;;3.53;3.23;;;26.50;97.00;;;;;;4957137;28;20172;-68
2022/08/05 15:45:00;;;;;;;4.77;4.37;;;26.00;99.90;;;;;;4958361;28;20455;-69
2022/08/05 15:47:25;;;;;;;6.77;4.10;;;25.60;99.90;;;;;;4956958;28;20181;-68
2022/08/05 15:49:51;;;;;;;4.37;3.97;;;25.30;99.90;;;;;;4958323;29;20587;-70
2022/08/05 15:52:18;;;;;;;4.17;3.77;;;25.10;99.90;;;;;;4957899;28;20259;-70
2022/08/05 15:54:44;;;;;;;3.83;3.53;;;25.00;99.90;;;;;;4958531;28;20255;-69
2022/08/05 15:57:10;;;;;;;3.70;3.40;;;25.00;99.90;;;;;;4958339;29;20409;-70
2022/08/05 15:59:36;;;;;;;2.80;2.60;;;25.00;99.90;;;;;;4958267;28;20936;-69
2022/08/05 16:02:01;;;;;;;2.90;2.70;;;25.00;99.90;;;;;;4958058;28;20428;-68
2022/08/05 16:04:27;;;;;;;3.10;2.60;;;25.10;99.90;;;;;;4957646;28;20217;-68
2022/08/05 16:06:53;;;;;;;3.30;3.10;;;25.20;99.90;;;;;;4958207;28;20196;-68
2022/08/05 16:09:19;;;;;;;3.37;3.17;;;25.30;99.90;;;;;;4957493;28;20651;-67
2022/08/05 16:11:45;;;;;;;3.03;2.77;;;25.40;99.90;;;;;;4956811;28;20420;-69
2022/08/05 16:14:11;;;;;;;3.47;3.17;;;25.50;99.90;;;;;;4955351;29;20698;-67
2022/08/05 16:16:36;;;;;;;5.00;3.53;;;25.60;99.90;;;;;;4957544;28;20247;-67
2022/08/05 16:19:02;;;;;;;5.60;3.57;;;25.70;99.90;;;;;;4958139;28;20201;-67
2022/08/05 16:21:28;;;;;;;3.67;3.40;;;25.80;99.90;;;;;;4957823;28;20715;-68
2022/08/05 16:23:54;;;;;;;7.03;2.90;;;25.80;99.90;;;;;;4956819;29;20228;-68
2022/08/05 16:26:20;;;;;;;5.17;4.30;;;25.90;99.90;;;;;;4955698;28;20181;-68
2022/08/05 16:28:46;;;;;;;3.97;3.67;;;26.10;99.60;;;;;;4955885;29;20587;-72
2022/08/05 16:31:11;;;;;;;2.67;2.50;;;26.20;98.20;;;;;;4957797;29;20447;-68
2022/08/05 16:33:37;;;;;;;2.67;2.47;;;26.30;97.70;;;;;;4957064;29;20280;-69
2022/08/05 16:36:03;;;;;;;3.57;3.07;;;26.30;97.40;;;;;;4957493;28;20571;-69
2022/08/05 16:38:29;;;;;;;2.97;2.77;;;26.40;97.30;;;;;;4957700;29;20169;-70
2022/08/05 16:40:56;;;;;;;3.43;3.13;;;26.60;96.70;;;;;;4956803;29;20950;-68
2022/08/05 16:43:23;;;;;;;2.77;2.57;;;26.60;96.20;;;;;;4957157;29;20197;-69
2022/08/05 16:45:50;;;;;;;3.97;2.90;;;26.60;95.50;;;;;;4957287;28;20760;-68
2022/08/05 16:48:16;;;;;;;4.10;3.43;;;26.60;95.30;;;;;;4956158;28;20511;-68
2022/08/05 16:50:42;;;;;;;3.50;3.30;;;26.60;95.30;;;;;;4956720;28;20496;-67
2022/08/05 16:53:07;;;;;;;3.13;2.90;;;26.60;94.70;;;;;;4956683;28;20181;-71
2022/08/05 16:55:33;;;;;;;3.20;3.00;;;26.60;94.70;;;;;;4957139;28;20620;-68
2022/08/05 16:57:58;;;;;;;3.80;3.50;;;26.60;94.50;;;;;;4957549;28;20173;-68
2022/08/05 17:00:24;;;;;;;5.20;2.93;;;26.60;94.80;;;;;;4957111;28;20544;-69
2022/08/05 17:02:50;;;;;;;3.27;2.97;;;26.60;93.90;;;;;;4956854;29;20181;-68
2022/08/05 17:05:16;;;;;;;3.20;2.90;;;26.60;94.20;;;;;;4956636;29;20209;-70
2022/08/05 17:07:41;;;;;;;3.20;2.90;;;26.60;94.00;;;;;;4957023;28;20275;-72